sensor_id;sensor_type;location;lat;lon;timestamp;pressure;altitude;pressure_sealevel;temperature;humidity
53246;BME280;39569;51.090;-1.786;2023-06-10T00:01:04;100541.06;;;29.04;39.22
53246;BME280;39569;51.090;-1.786;2023-06-10T00:03:31;100543.34;;;28.84;39.30
53246;BME280;39569;51.090;-1.786;2023-06-10T00:05:58;100538.25;;;28.91;39.64
53246;BME280;39569;51.090;-1.786;2023-06-10T00:08:24;100542.94;;;28.90;39.34
53246;BME280;39569;51.090;-1.786;2023-06-10T00:10:51;100545.41;;;28.55;40.42
53246;BME280;39569;51.090;-1.786;2023-06-10T00:13:19;100545.13;;;28.14;41.13
53246;BME280;39569;51.090;-1.786;2023-06-10T00:15:46;100539.97;;;28.31;40.68
53246;BME280;39569;51.090;-1.786;2023-06-10T00:18:13;100536.19;;;28.46;40.42
53246;BME280;39569;51.090;-1.786;2023-06-10T00:20:41;100533.94;;;28.29;40.42
53246;BME280;39569;51.090;-1.786;2023-06-10T00:23:08;100535.06;;;28.47;40.10
53246;BME280;39569;51.090;-1.786;2023-06-10T00:25:34;100539.22;;;28.44;40.27
53246;BME280;39569;51.090;-1.786;2023-06-10T00:28:01;100536.56;;;28.39;40.48
53246;BME280;39569;51.090;-1.786;2023-06-10T00:30:29;100541.44;;;28.42;40.12
53246;BME280;39569;51.090;-1.786;2023-06-10T00:32:56;100530.16;;;28.25;40.56
53246;BME280;39569;51.090;-1.786;2023-06-10T00:35:23;100530.22;;;28.20;40.46
53246;BME280;39569;51.090;-1.786;2023-06-10T00:37:50;100527.41;;;28.25;40.31
53246;BME280;39569;51.090;-1.786;2023-06-10T00:40:16;100519.22;;;28.20;40.24
53246;BME280;39569;51.090;-1.786;2023-06-10T00:42:43;100523.84;;;28.06;40.53
53246;BME280;39569;51.090;-1.786;2023-06-10T00:45:10;100514.63;;;27.92;41.00
53246;BME280;39569;51.090;-1.786;2023-06-10T00:47:39;100510.53;;;28.13;40.49
53246;BME280;39569;51.090;-1.786;2023-06-10T00:50:07;100518.16;;;27.97;40.98
53246;BME280;39569;51.090;-1.786;2023-06-10T00:52:34;100517.00;;;27.80;41.31
53246;BME280;39569;51.090;-1.786;2023-06-10T00:55:02;100513.25;;;27.71;41.55
53246;BME280;39569;51.090;-1.786;2023-06-10T00:57:29;100519.66;;;27.85;40.92
53246;BME280;39569;51.090;-1.786;2023-06-10T00:59:56;100518.97;;;27.74;41.13
53246;BME280;39569;51.090;-1.786;2023-06-10T01:02:24;100517.75;;;27.62;41.38
53246;BME280;39569;51.090;-1.786;2023-06-10T01:04:52;100520.50;;;27.62;41.60
53246;BME280;39569;51.090;-1.786;2023-06-10T01:07:25;100509.72;;;27.89;40.90
53246;BME280;39569;51.090;-1.786;2023-06-10T01:09:57;100515.19;;;27.94;40.83
53246;BME280;39569;51.090;-1.786;2023-06-10T01:12:31;100514.31;;;27.75;41.22
53246;BME280;39569;51.090;-1.786;2023-06-10T01:14:59;100523.16;;;27.90;40.74
53246;BME280;39569;51.090;-1.786;2023-06-10T01:17:26;100524.00;;;27.91;40.56
53246;BME280;39569;51.090;-1.786;2023-06-10T01:19:56;100521.50;;;27.71;40.85
53246;BME280;39569;51.090;-1.786;2023-06-10T01:22:25;100519.66;;;27.38;41.83
53246;BME280;39569;51.090;-1.786;2023-06-10T01:24:54;100516.25;;;27.46;41.50
53246;BME280;39569;51.090;-1.786;2023-06-10T01:27:26;100511.06;;;27.44;41.77
53246;BME280;39569;51.090;-1.786;2023-06-10T01:30:01;100517.09;;;27.70;41.39
53246;BME280;39569;51.090;-1.786;2023-06-10T01:32:34;100513.72;;;27.78;41.15
53246;BME280;39569;51.090;-1.786;2023-06-10T01:35:02;100509.09;;;27.50;41.76
53246;BME280;39569;51.090;-1.786;2023-06-10T01:37:30;100511.72;;;27.36;41.49
53246;BME280;39569;51.090;-1.786;2023-06-10T01:39:59;100508.28;;;27.49;41.30
53246;BME280;39569;51.090;-1.786;2023-06-10T01:42:28;100514.13;;;27.43;41.18
53246;BME280;39569;51.090;-1.786;2023-06-10T01:44:55;100512.81;;;27.35;41.42
53246;BME280;39569;51.090;-1.786;2023-06-10T01:47:21;100512.41;;;27.18;41.63
53246;BME280;39569;51.090;-1.786;2023-06-10T01:49:48;100511.00;;;26.92;42.55
53246;BME280;39569;51.090;-1.786;2023-06-10T01:52:15;100509.03;;;26.97;41.90
53246;BME280;39569;51.090;-1.786;2023-06-10T01:54:44;100517.13;;;26.84;42.13
53246;BME280;39569;51.090;-1.786;2023-06-10T01:57:10;100507.75;;;26.90;42.17
53246;BME280;39569;51.090;-1.786;2023-06-10T01:59:37;100500.91;;;26.87;42.33
53246;BME280;39569;51.090;-1.786;2023-06-10T02:02:04;100510.84;;;26.78;42.25
53246;BME280;39569;51.090;-1.786;2023-06-10T02:04:31;100509.41;;;26.86;42.02
53246;BME280;39569;51.090;-1.786;2023-06-10T02:06:58;100510.50;;;26.90;42.16
53246;BME280;39569;51.090;-1.786;2023-06-10T02:09:29;100510.72;;;26.93;41.58
53246;BME280;39569;51.090;-1.786;2023-06-10T02:11:57;100516.69;;;27.00;41.92
53246;BME280;39569;51.090;-1.786;2023-06-10T02:14:24;100515.44;;;26.88;42.43
53246;BME280;39569;51.090;-1.786;2023-06-10T02:16:50;100516.22;;;26.88;41.86
53246;BME280;39569;51.090;-1.786;2023-06-10T02:19:21;100519.38;;;26.77;42.59
53246;BME280;39569;51.090;-1.786;2023-06-10T02:21:49;100513.31;;;26.80;42.48
53246;BME280;39569;51.090;-1.786;2023-06-10T02:24:16;100507.59;;;26.66;41.99
53246;BME280;39569;51.090;-1.786;2023-06-10T02:26:43;100510.94;;;26.63;42.59
53246;BME280;39569;51.090;-1.786;2023-06-10T02:29:11;100510.84;;;26.35;43.31
53246;BME280;39569;51.090;-1.786;2023-06-10T02:31:38;100520.47;;;26.32;42.86
53246;BME280;39569;51.090;-1.786;2023-06-10T02:34:06;100522.53;;;26.50;43.14
53246;BME280;39569;51.090;-1.786;2023-06-10T02:36:33;100517.31;;;26.54;42.31
53246;BME280;39569;51.090;-1.786;2023-06-10T02:39:01;100519.84;;;26.40;42.60
53246;BME280;39569;51.090;-1.786;2023-06-10T02:41:28;100521.91;;;26.14;43.70
53246;BME280;39569;51.090;-1.786;2023-06-10T02:43:55;100519.53;;;25.93;44.00
53246;BME280;39569;51.090;-1.786;2023-06-10T02:46:23;100519.16;;;26.14;43.66
53246;BME280;39569;51.090;-1.786;2023-06-10T02:48:50;100532.66;;;26.06;43.42
53246;BME280;39569;51.090;-1.786;2023-06-10T02:51:17;100537.53;;;26.04;43.30
53246;BME280;39569;51.090;-1.786;2023-06-10T02:53:44;100525.97;;;26.22;42.82
53246;BME280;39569;51.090;-1.786;2023-06-10T02:56:11;100531.31;;;25.93;43.58
53246;BME280;39569;51.090;-1.786;2023-06-10T02:58:38;100537.00;;;26.12;43.15
53246;BME280;39569;51.090;-1.786;2023-06-10T03:01:05;100527.97;;;26.11;43.17
53246;BME280;39569;51.090;-1.786;2023-06-10T03:03:33;100528.78;;;26.12;43.16
53246;BME280;39569;51.090;-1.786;2023-06-10T03:06:00;100532.06;;;26.09;43.21
53246;BME280;39569;51.090;-1.786;2023-06-10T03:08:27;100538.69;;;25.93;43.86
53246;BME280;39569;51.090;-1.786;2023-06-10T03:10:55;100540.88;;;25.91;43.86
53246;BME280;39569;51.090;-1.786;2023-06-10T03:13:23;100536.25;;;25.91;43.56
53246;BME280;39569;51.090;-1.786;2023-06-10T03:15:50;100532.94;;;26.04;43.30
53246;BME280;39569;51.090;-1.786;2023-06-10T03:18:17;100535.38;;;26.06;43.23
53246;BME280;39569;51.090;-1.786;2023-06-10T03:20:45;100540.06;;;25.90;43.08
53246;BME280;39569;51.090;-1.786;2023-06-10T03:23:12;100534.03;;;25.88;43.38
53246;BME280;39569;51.090;-1.786;2023-06-10T03:25:38;100533.25;;;25.88;42.86
53246;BME280;39569;51.090;-1.786;2023-06-10T03:28:05;100526.47;;;25.65;44.16
53246;BME280;39569;51.090;-1.786;2023-06-10T03:30:32;100526.50;;;25.55;44.02
53246;BME280;39569;51.090;-1.786;2023-06-10T03:32:58;100532.44;;;25.77;43.45
53246;BME280;39569;51.090;-1.786;2023-06-10T03:35:26;100530.56;;;25.73;43.58
53246;BME280;39569;51.090;-1.786;2023-06-10T03:37:54;100534.44;;;25.37;43.98
53246;BME280;39569;51.090;-1.786;2023-06-10T03:40:21;100524.59;;;25.36;44.01
53246;BME280;39569;51.090;-1.786;2023-06-10T03:42:47;100524.34;;;25.32;44.40
53246;BME280;39569;51.090;-1.786;2023-06-10T03:45:14;100523.50;;;25.31;43.80
53246;BME280;39569;51.090;-1.786;2023-06-10T03:47:41;100529.78;;;25.37;44.06
53246;BME280;39569;51.090;-1.786;2023-06-10T03:50:09;100534.22;;;25.38;43.66
53246;BME280;39569;51.090;-1.786;2023-06-10T03:52:38;100536.91;;;25.28;44.18
53246;BME280;39569;51.090;-1.786;2023-06-10T03:55:07;100529.00;;;25.26;44.48
53246;BME280;39569;51.090;-1.786;2023-06-10T03:57:34;100525.72;;;25.19;44.36
53246;BME280;39569;51.090;-1.786;2023-06-10T04:00:00;100531.72;;;25.01;44.73
53246;BME280;39569;51.090;-1.786;2023-06-10T04:02:31;100530.06;;;25.36;44.13
53246;BME280;39569;51.090;-1.786;2023-06-10T04:05:00;100529.28;;;25.25;43.87
53246;BME280;39569;51.090;-1.786;2023-06-10T04:07:27;100518.84;;;25.27;43.80
53246;BME280;39569;51.090;-1.786;2023-06-10T04:09:54;100525.16;;;25.22;43.98
53246;BME280;39569;51.090;-1.786;2023-06-10T04:12:22;100522.41;;;25.27;43.92
53246;BME280;39569;51.090;-1.786;2023-06-10T04:14:49;100526.00;;;24.98;44.69
53246;BME280;39569;51.090;-1.786;2023-06-10T04:17:16;100524.09;;;24.98;44.50
53246;BME280;39569;51.090;-1.786;2023-06-10T04:19:43;100534.19;;;24.83;44.95
53246;BME280;39569;51.090;-1.786;2023-06-10T04:22:10;100527.38;;;25.00;44.50
53246;BME280;39569;51.090;-1.786;2023-06-10T04:24:37;100532.81;;;25.10;44.43
53246;BME280;39569;51.090;-1.786;2023-06-10T04:27:05;100535.81;;;25.29;43.98
53246;BME280;39569;51.090;-1.786;2023-06-10T04:29:33;100531.47;;;25.23;44.30
53246;BME280;39569;51.090;-1.786;2023-06-10T04:32:00;100541.56;;;25.22;43.96
53246;BME280;39569;51.090;-1.786;2023-06-10T04:34:27;100533.66;;;25.41;43.24
53246;BME280;39569;51.090;-1.786;2023-06-10T04:36:54;100535.56;;;25.41;43.56
53246;BME280;39569;51.090;-1.786;2023-06-10T04:39:21;100536.66;;;25.45;43.21
53246;BME280;39569;51.090;-1.786;2023-06-10T04:41:48;100536.38;;;25.41;43.71
53246;BME280;39569;51.090;-1.786;2023-06-10T04:44:15;100528.69;;;25.33;43.72
53246;BME280;39569;51.090;-1.786;2023-06-10T04:46:43;100525.94;;;25.53;43.48
53246;BME280;39569;51.090;-1.786;2023-06-10T04:49:10;100532.00;;;25.30;43.62
53246;BME280;39569;51.090;-1.786;2023-06-10T04:51:39;100529.00;;;25.26;43.71
53246;BME280;39569;51.090;-1.786;2023-06-10T04:54:06;100530.38;;;25.19;43.95
53246;BME280;39569;51.090;-1.786;2023-06-10T04:56:33;100525.41;;;25.46;43.70
53246;BME280;39569;51.090;-1.786;2023-06-10T04:59:00;100527.31;;;25.66;43.46
53246;BME280;39569;51.090;-1.786;2023-06-10T05:01:26;100526.25;;;25.47;43.68
53246;BME280;39569;51.090;-1.786;2023-06-10T05:03:55;100526.19;;;25.57;43.94
53246;BME280;39569;51.090;-1.786;2023-06-10T05:06:22;100528.09;;;25.71;43.25
53246;BME280;39569;51.090;-1.786;2023-06-10T05:08:49;100529.72;;;25.72;43.42
53246;BME280;39569;51.090;-1.786;2023-06-10T05:11:15;100527.00;;;25.72;44.00
53246;BME280;39569;51.090;-1.786;2023-06-10T05:13:42;100526.22;;;25.62;43.76
53246;BME280;39569;51.090;-1.786;2023-06-10T05:16:09;100525.31;;;25.81;43.68
53246;BME280;39569;51.090;-1.786;2023-06-10T05:18:36;100530.75;;;25.91;43.70
53246;BME280;39569;51.090;-1.786;2023-06-10T05:21:04;100530.41;;;26.03;43.61
53246;BME280;39569;51.090;-1.786;2023-06-10T05:23:31;100538.31;;;26.24;42.69
53246;BME280;39569;51.090;-1.786;2023-06-10T05:25:58;100535.31;;;26.21;43.02
53246;BME280;39569;51.090;-1.786;2023-06-10T05:28:25;100531.16;;;26.23;42.65
53246;BME280;39569;51.090;-1.786;2023-06-10T05:30:51;100533.06;;;26.28;42.66
53246;BME280;39569;51.090;-1.786;2023-06-10T05:33:18;100537.34;;;26.44;42.16
53246;BME280;39569;51.090;-1.786;2023-06-10T05:35:45;100534.84;;;26.53;42.32
53246;BME280;39569;51.090;-1.786;2023-06-10T05:38:13;100533.03;;;26.82;42.10
53246;BME280;39569;51.090;-1.786;2023-06-10T05:40:40;100532.91;;;26.53;42.67
53246;BME280;39569;51.090;-1.786;2023-06-10T05:43:07;100534.97;;;26.76;42.35
53246;BME280;39569;51.090;-1.786;2023-06-10T05:45:34;100528.81;;;26.94;41.49
53246;BME280;39569;51.090;-1.786;2023-06-10T05:48:01;100534.16;;;27.09;41.24
53246;BME280;39569;51.090;-1.786;2023-06-10T05:50:28;100543.47;;;27.13;41.31
53246;BME280;39569;51.090;-1.786;2023-06-10T05:52:55;100544.16;;;27.24;41.62
53246;BME280;39569;51.090;-1.786;2023-06-10T05:55:24;100549.88;;;27.33;41.31
53246;BME280;39569;51.090;-1.786;2023-06-10T05:57:58;100547.75;;;27.53;41.05
53246;BME280;39569;51.090;-1.786;2023-06-10T06:00:26;100541.41;;;27.58;41.01
53246;BME280;39569;51.090;-1.786;2023-06-10T06:02:53;100535.78;;;27.44;41.30
53246;BME280;39569;51.090;-1.786;2023-06-10T06:05:22;100553.44;;;27.62;40.73
53246;BME280;39569;51.090;-1.786;2023-06-10T06:07:49;100549.56;;;27.63;40.64
53246;BME280;39569;51.090;-1.786;2023-06-10T06:10:17;100564.53;;;27.75;40.64
53246;BME280;39569;51.090;-1.786;2023-06-10T06:12:45;100558.69;;;27.82;40.89
53246;BME280;39569;51.090;-1.786;2023-06-10T06:15:12;100569.31;;;27.88;40.13
53246;BME280;39569;51.090;-1.786;2023-06-10T06:17:38;100571.19;;;27.69;40.80
53246;BME280;39569;51.090;-1.786;2023-06-10T06:20:06;100572.50;;;28.00;40.22
53246;BME280;39569;51.090;-1.786;2023-06-10T06:22:33;100571.44;;;28.20;39.91
53246;BME280;39569;51.090;-1.786;2023-06-10T06:25:00;100570.56;;;28.25;39.68
53246;BME280;39569;51.090;-1.786;2023-06-10T06:27:28;100570.88;;;28.42;39.03
53246;BME280;39569;51.090;-1.786;2023-06-10T06:29:56;100568.56;;;28.30;39.98
53246;BME280;39569;51.090;-1.786;2023-06-10T06:32:24;100565.19;;;28.57;39.36
53246;BME280;39569;51.090;-1.786;2023-06-10T06:34:52;100572.09;;;28.91;38.89
53246;BME280;39569;51.090;-1.786;2023-06-10T06:37:21;100571.56;;;29.08;38.27
53246;BME280;39569;51.090;-1.786;2023-06-10T06:39:50;100569.69;;;29.03;38.41
53246;BME280;39569;51.090;-1.786;2023-06-10T06:42:17;100566.06;;;28.89;38.98
53246;BME280;39569;51.090;-1.786;2023-06-10T06:44:44;100571.94;;;28.83;38.62
53246;BME280;39569;51.090;-1.786;2023-06-10T06:47:12;100571.38;;;28.86;38.46
53246;BME280;39569;51.090;-1.786;2023-06-10T06:49:39;100575.31;;;28.61;39.27
53246;BME280;39569;51.090;-1.786;2023-06-10T06:52:06;100571.72;;;28.61;38.80
53246;BME280;39569;51.090;-1.786;2023-06-10T06:54:33;100569.06;;;28.74;38.80
53246;BME280;39569;51.090;-1.786;2023-06-10T06:57:00;100565.97;;;28.94;38.60
53246;BME280;39569;51.090;-1.786;2023-06-10T06:59:27;100563.28;;;29.08;38.08
53246;BME280;39569;51.090;-1.786;2023-06-10T07:01:54;100569.78;;;28.98;38.40
53246;BME280;39569;51.090;-1.786;2023-06-10T07:04:22;100560.81;;;29.25;37.64
53246;BME280;39569;51.090;-1.786;2023-06-10T07:06:49;100563.16;;;29.64;37.70
53246;BME280;39569;51.090;-1.786;2023-06-10T07:09:16;100567.22;;;29.53;37.51
53246;BME280;39569;51.090;-1.786;2023-06-10T07:11:42;100568.78;;;29.72;37.13
53246;BME280;39569;51.090;-1.786;2023-06-10T07:14:09;100570.00;;;30.07;37.11
53246;BME280;39569;51.090;-1.786;2023-06-10T07:16:36;100567.38;;;30.29;36.62
53246;BME280;39569;51.090;-1.786;2023-06-10T07:19:03;100562.09;;;30.55;35.73
53246;BME280;39569;51.090;-1.786;2023-06-10T07:21:31;100568.53;;;30.64;35.90
53246;BME280;39569;51.090;-1.786;2023-06-10T07:23:59;100572.56;;;30.80;35.02
53246;BME280;39569;51.090;-1.786;2023-06-10T07:26:26;100576.59;;;30.96;35.53
53246;BME280;39569;51.090;-1.786;2023-06-10T07:28:52;100577.94;;;30.99;34.97
53246;BME280;39569;51.090;-1.786;2023-06-10T07:31:19;100567.41;;;30.51;36.25
53246;BME280;39569;51.090;-1.786;2023-06-10T07:33:46;100588.09;;;30.89;35.76
53246;BME280;39569;51.090;-1.786;2023-06-10T07:36:13;100588.00;;;31.03;35.92
53246;BME280;39569;51.090;-1.786;2023-06-10T07:38:41;100575.72;;;30.87;35.62
53246;BME280;39569;51.090;-1.786;2023-06-10T07:41:08;100591.88;;;31.38;35.01
53246;BME280;39569;51.090;-1.786;2023-06-10T07:43:36;100583.56;;;31.60;34.36
53246;BME280;39569;51.090;-1.786;2023-06-10T07:46:03;100589.69;;;31.35;34.74
53246;BME280;39569;51.090;-1.786;2023-06-10T07:48:30;100583.13;;;31.22;35.14
53246;BME280;39569;51.090;-1.786;2023-06-10T07:50:57;100585.06;;;31.44;34.95
53246;BME280;39569;51.090;-1.786;2023-06-10T07:53:24;100581.28;;;31.93;34.37
53246;BME280;39569;51.090;-1.786;2023-06-10T07:55:53;100582.78;;;31.99;34.17
53246;BME280;39569;51.090;-1.786;2023-06-10T07:58:20;100583.34;;;32.26;33.75
53246;BME280;39569;51.090;-1.786;2023-06-10T08:00:47;100578.72;;;32.52;33.05
53246;BME280;39569;51.090;-1.786;2023-06-10T08:03:14;100569.81;;;32.16;34.71
53246;BME280;39569;51.090;-1.786;2023-06-10T08:05:41;100574.88;;;32.23;33.70
53246;BME280;39569;51.090;-1.786;2023-06-10T08:08:07;100572.03;;;32.53;33.71
53246;BME280;39569;51.090;-1.786;2023-06-10T08:10:35;100568.78;;;32.86;33.90
53246;BME280;39569;51.090;-1.786;2023-06-10T08:13:03;100547.13;;;33.05;33.46
53246;BME280;39569;51.090;-1.786;2023-06-10T08:15:30;100561.44;;;32.55;33.80
53246;BME280;39569;51.090;-1.786;2023-06-10T08:17:56;100560.63;;;33.23;32.98
53246;BME280;39569;51.090;-1.786;2023-06-10T08:20:24;100559.50;;;33.07;33.19
53246;BME280;39569;51.090;-1.786;2023-06-10T08:22:50;100555.84;;;33.49;32.52
53246;BME280;39569;51.090;-1.786;2023-06-10T08:25:17;100558.31;;;33.51;32.60
53246;BME280;39569;51.090;-1.786;2023-06-10T08:27:44;100561.09;;;33.89;32.47
53246;BME280;39569;51.090;-1.786;2023-06-10T08:30:13;100554.31;;;34.36;31.25
53246;BME280;39569;51.090;-1.786;2023-06-10T08:32:40;100569.38;;;34.55;30.94
53246;BME280;39569;51.090;-1.786;2023-06-10T08:35:07;100572.56;;;34.87;30.64
53246;BME280;39569;51.090;-1.786;2023-06-10T08:37:34;100555.72;;;34.71;31.16
53246;BME280;39569;51.090;-1.786;2023-06-10T08:40:01;100559.63;;;35.11;29.86
53246;BME280;39569;51.090;-1.786;2023-06-10T08:42:31;100566.97;;;34.95;30.33
53246;BME280;39569;51.090;-1.786;2023-06-10T08:45:01;100579.44;;;35.22;29.53
53246;BME280;39569;51.090;-1.786;2023-06-10T08:47:30;100569.19;;;35.02;29.87
53246;BME280;39569;51.090;-1.786;2023-06-10T08:50:03;100571.69;;;35.27;29.77
53246;BME280;39569;51.090;-1.786;2023-06-10T08:52:35;100571.13;;;35.54;29.23
53246;BME280;39569;51.090;-1.786;2023-06-10T08:55:07;100562.38;;;36.01;29.04
53246;BME280;39569;51.090;-1.786;2023-06-10T08:57:36;100566.19;;;35.84;29.02
53246;BME280;39569;51.090;-1.786;2023-06-10T09:00:05;100557.28;;;36.15;29.44
53246;BME280;39569;51.090;-1.786;2023-06-10T09:02:34;100564.44;;;36.16;29.31
53246;BME280;39569;51.090;-1.786;2023-06-10T09:05:02;100565.50;;;35.99;28.56
53246;BME280;39569;51.090;-1.786;2023-06-10T09:07:30;100562.03;;;36.02;29.15
53246;BME280;39569;51.090;-1.786;2023-06-10T09:10:00;100561.28;;;35.81;30.02
53246;BME280;39569;51.090;-1.786;2023-06-10T09:12:29;100557.00;;;36.44;28.41
53246;BME280;39569;51.090;-1.786;2023-06-10T09:14:56;100565.25;;;36.16;29.04
53246;BME280;39569;51.090;-1.786;2023-06-10T09:17:23;100568.97;;;35.84;29.02
53246;BME280;39569;51.090;-1.786;2023-06-10T09:19:52;100562.84;;;36.15;28.61
53246;BME280;39569;51.090;-1.786;2023-06-10T09:22:21;100571.91;;;36.88;27.88
53246;BME280;39569;51.090;-1.786;2023-06-10T09:24:48;100562.34;;;36.49;28.13
53246;BME280;39569;51.090;-1.786;2023-06-10T09:27:15;100562.50;;;36.80;28.14
53246;BME280;39569;51.090;-1.786;2023-06-10T09:29:46;100563.19;;;36.77;28.98
53246;BME280;39569;51.090;-1.786;2023-06-10T09:32:13;100562.25;;;36.85;28.81
53246;BME280;39569;51.090;-1.786;2023-06-10T09:34:40;100563.28;;;36.81;28.53
53246;BME280;39569;51.090;-1.786;2023-06-10T09:37:09;100565.94;;;36.49;28.90
53246;BME280;39569;51.090;-1.786;2023-06-10T09:39:37;100562.22;;;36.58;29.29
53246;BME280;39569;51.090;-1.786;2023-06-10T09:42:15;100562.81;;;36.91;27.66
53246;BME280;39569;51.090;-1.786;2023-06-10T09:44:49;100560.03;;;36.91;28.02
53246;BME280;39569;51.090;-1.786;2023-06-10T09:47:20;100562.66;;;36.99;27.83
53246;BME280;39569;51.090;-1.786;2023-06-10T09:49:47;100552.38;;;37.15;28.50
53246;BME280;39569;51.090;-1.786;2023-06-10T09:52:21;100548.75;;;38.05;27.08
53246;BME280;39569;51.090;-1.786;2023-06-10T09:54:48;100555.59;;;37.61;27.32
53246;BME280;39569;51.090;-1.786;2023-06-10T09:57:17;100554.19;;;37.23;28.17
53246;BME280;39569;51.090;-1.786;2023-06-10T09:59:44;100546.00;;;37.15;27.61
53246;BME280;39569;51.090;-1.786;2023-06-10T10:02:14;100552.03;;;36.89;28.75
53246;BME280;39569;51.090;-1.786;2023-06-10T10:04:41;100554.31;;;36.60;28.32
53246;BME280;39569;51.090;-1.786;2023-06-10T10:07:08;100556.28;;;37.85;28.71
53246;BME280;39569;51.090;-1.786;2023-06-10T10:09:36;100558.28;;;38.35;26.91
53246;BME280;39569;51.090;-1.786;2023-06-10T10:12:08;100560.22;;;38.50;26.80
53246;BME280;39569;51.090;-1.786;2023-06-10T10:14:36;100557.41;;;38.15;26.77
53246;BME280;39569;51.090;-1.786;2023-06-10T10:17:04;100563.28;;;37.79;28.14
53246;BME280;39569;51.090;-1.786;2023-06-10T10:19:37;100555.19;;;37.90;27.21
53246;BME280;39569;51.090;-1.786;2023-06-10T10:22:08;100562.63;;;37.39;26.92
53246;BME280;39569;51.090;-1.786;2023-06-10T10:24:41;100561.72;;;37.66;27.72
53246;BME280;39569;51.090;-1.786;2023-06-10T10:27:15;100563.81;;;38.00;27.20
53246;BME280;39569;51.090;-1.786;2023-06-10T10:29:46;100564.59;;;38.16;27.50
53246;BME280;39569;51.090;-1.786;2023-06-10T10:32:14;100570.41;;;37.77;27.88
53246;BME280;39569;51.090;-1.786;2023-06-10T10:34:47;100567.63;;;37.77;27.86
53246;BME280;39569;51.090;-1.786;2023-06-10T10:37:17;100557.75;;;37.52;28.93
53246;BME280;39569;51.090;-1.786;2023-06-10T10:39:45;100559.03;;;37.54;27.65
53246;BME280;39569;51.090;-1.786;2023-06-10T10:42:13;100562.03;;;38.96;27.88
53246;BME280;39569;51.090;-1.786;2023-06-10T10:44:40;100554.75;;;39.11;26.33
53246;BME280;39569;51.090;-1.786;2023-06-10T10:47:08;100546.22;;;39.23;26.12
53246;BME280;39569;51.090;-1.786;2023-06-10T10:49:37;100560.00;;;39.54;26.81
53246;BME280;39569;51.090;-1.786;2023-06-10T10:52:04;100552.41;;;39.13;26.04
53246;BME280;39569;51.090;-1.786;2023-06-10T10:54:33;100557.59;;;39.53;25.58
53246;BME280;39569;51.090;-1.786;2023-06-10T10:57:11;100550.47;;;40.04;25.03
53246;BME280;39569;51.090;-1.786;2023-06-10T10:59:53;100550.06;;;40.58;25.26
53246;BME280;39569;51.090;-1.786;2023-06-10T11:02:35;100544.69;;;41.08;24.48
53246;BME280;39569;51.090;-1.786;2023-06-10T11:05:05;100546.38;;;40.50;23.61
53246;BME280;39569;51.090;-1.786;2023-06-10T11:07:34;100547.19;;;40.80;24.68
53246;BME280;39569;51.090;-1.786;2023-06-10T11:10:03;100549.94;;;40.77;24.21
53246;BME280;39569;51.090;-1.786;2023-06-10T11:12:52;100550.78;;;40.81;24.81
53246;BME280;39569;51.090;-1.786;2023-06-10T11:15:20;100552.50;;;40.33;25.02
53246;BME280;39569;51.090;-1.786;2023-06-10T11:18:14;100553.78;;;40.36;24.36
53246;BME280;39569;51.090;-1.786;2023-06-10T11:20:45;100553.13;;;39.93;25.13
53246;BME280;39569;51.090;-1.786;2023-06-10T11:23:40;100549.06;;;39.49;26.72
53246;BME280;39569;51.090;-1.786;2023-06-10T11:26:29;100545.97;;;39.32;27.35
53246;BME280;39569;51.090;-1.786;2023-06-10T11:29:10;100546.97;;;40.10;26.16
53246;BME280;39569;51.090;-1.786;2023-06-10T11:31:45;100542.53;;;40.91;24.97
53246;BME280;39569;51.090;-1.786;2023-06-10T11:34:13;100545.50;;;41.42;25.08
53246;BME280;39569;51.090;-1.786;2023-06-10T11:36:41;100546.00;;;41.55;24.21
53246;BME280;39569;51.090;-1.786;2023-06-10T11:39:11;100548.09;;;41.21;24.53
53246;BME280;39569;51.090;-1.786;2023-06-10T11:41:38;100547.28;;;41.21;24.50
53246;BME280;39569;51.090;-1.786;2023-06-10T11:44:08;100545.13;;;41.47;24.21
53246;BME280;39569;51.090;-1.786;2023-06-10T11:46:37;100544.69;;;41.85;23.50
53246;BME280;39569;51.090;-1.786;2023-06-10T11:49:05;100540.97;;;42.22;23.66
53246;BME280;39569;51.090;-1.786;2023-06-10T11:51:34;100529.19;;;42.67;22.84
53246;BME280;39569;51.090;-1.786;2023-06-10T11:54:01;100542.44;;;42.01;23.16
53246;BME280;39569;51.090;-1.786;2023-06-10T11:56:30;100538.13;;;42.86;22.72
53246;BME280;39569;51.090;-1.786;2023-06-10T11:58:59;100534.25;;;43.44;22.73
53246;BME280;39569;51.090;-1.786;2023-06-10T12:01:30;100538.09;;;42.83;23.25
53246;BME280;39569;51.090;-1.786;2023-06-10T12:04:12;100544.78;;;42.50;22.68
53246;BME280;39569;51.090;-1.786;2023-06-10T12:06:41;100541.97;;;41.49;23.65
53246;BME280;39569;51.090;-1.786;2023-06-10T12:09:17;100540.47;;;42.09;23.24
53246;BME280;39569;51.090;-1.786;2023-06-10T12:11:45;100529.50;;;41.46;23.44
53246;BME280;39569;51.090;-1.786;2023-06-10T12:14:12;100541.72;;;41.64;23.79
53246;BME280;39569;51.090;-1.786;2023-06-10T12:16:39;100540.16;;;41.70;23.60
53246;BME280;39569;51.090;-1.786;2023-06-10T12:19:07;100536.56;;;42.24;23.62
53246;BME280;39569;51.090;-1.786;2023-06-10T12:21:36;100527.50;;;42.52;23.04
53246;BME280;39569;51.090;-1.786;2023-06-10T12:24:06;100525.06;;;42.40;23.88
53246;BME280;39569;51.090;-1.786;2023-06-10T12:26:37;100532.41;;;42.00;23.49
53246;BME280;39569;51.090;-1.786;2023-06-10T12:29:22;100531.28;;;41.61;25.01
53246;BME280;39569;51.090;-1.786;2023-06-10T12:32:00;100526.34;;;41.98;23.43
53246;BME280;39569;51.090;-1.786;2023-06-10T12:34:34;100523.66;;;40.88;24.91
53246;BME280;39569;51.090;-1.786;2023-06-10T12:37:02;100524.41;;;42.03;24.46
53246;BME280;39569;51.090;-1.786;2023-06-10T12:39:30;100514.88;;;43.04;23.16
53246;BME280;39569;51.090;-1.786;2023-06-10T12:41:57;100523.31;;;43.18;23.51
53246;BME280;39569;51.090;-1.786;2023-06-10T12:44:38;100524.16;;;43.22;22.81
53246;BME280;39569;51.090;-1.786;2023-06-10T12:47:08;100517.75;;;43.28;22.48